Time;durP1;ratioP1;P1;durP2;ratioP2;P2;SDS_P1;SDS_P2;PMS_P1;PMS_P2;Temp;Humidity;BMP_temperature;BMP_pressure;BME280_temperature;BME280_humidity;BME280_pressure;Samples;Min_cycle;Max_cycle;Signal;HPM_P1;HPM_P2
2021/09/27 00:00:39;;;;;;;8.25;5.68;;;19.20;76.10;;;;;;5008516;28;20101;-39
2021/09/27 00:03:23;;;;;;;9.43;5.75;;;19.20;76.00;;;;;;5007140;28;20045;-39
2021/09/27 00:06:08;;;;;;;12.70;6.32;;;19.20;75.90;;;;;;5007070;28;20053;-39
2021/09/27 00:08:53;;;;;;;7.68;5.80;;;19.20;75.70;;;;;;5006886;28;20073;-39
2021/09/27 00:11:38;;;;;;;10.40;5.90;;;19.20;75.80;;;;;;5007776;28;20041;-39
2021/09/27 00:14:22;;;;;;;11.50;6.55;;;19.20;75.90;;;;;;5007929;28;20045;-39
2021/09/27 00:17:07;;;;;;;9.27;5.93;;;19.20;75.90;;;;;;5006645;28;20215;-39
2021/09/27 00:19:51;;;;;;;9.25;6.50;;;19.10;76.00;;;;;;5007599;28;20306;-39
2021/09/27 00:22:36;;;;;;;10.23;6.60;;;19.20;76.00;;;;;;5007154;28;20113;-39
2021/09/27 00:25:21;;;;;;;10.80;6.75;;;19.20;76.00;;;;;;5006575;28;20041;-39
2021/09/27 00:28:05;;;;;;;8.98;6.30;;;19.10;76.10;;;;;;5007936;28;20263;-39
2021/09/27 00:30:49;;;;;;;10.77;6.00;;;19.20;76.00;;;;;;5007085;28;20029;-39
2021/09/27 00:33:33;;;;;;;9.85;6.60;;;19.10;76.10;;;;;;5007760;28;20361;-39
2021/09/27 00:36:18;;;;;;;9.05;6.25;;;19.10;76.10;;;;;;5007376;28;20262;-39
2021/09/27 00:39:03;;;;;;;10.23;6.30;;;19.10;76.00;;;;;;5007665;28;20038;-39
2021/09/27 00:41:47;;;;;;;9.55;6.35;;;19.10;76.00;;;;;;5007527;28;20393;-39
2021/09/27 00:44:31;;;;;;;9.98;6.28;;;19.10;76.10;;;;;;5007540;28;20076;-39
2021/09/27 00:47:15;;;;;;;9.68;6.35;;;19.00;76.10;;;;;;5007464;28;20321;-39
2021/09/27 00:50:00;;;;;;;9.27;6.50;;;19.00;76.10;;;;;;5007244;28;20025;-39
2021/09/27 00:52:44;;;;;;;9.95;6.40;;;19.00;76.00;;;;;;5007650;28;20053;-39
2021/09/27 00:55:28;;;;;;;9.13;6.13;;;19.00;76.10;;;;;;5006262;28;20076;-39
2021/09/27 00:58:12;;;;;;;8.80;6.40;;;19.00;76.00;;;;;;5006313;28;20037;-39
2021/09/27 01:00:56;;;;;;;10.27;6.30;;;19.00;76.00;;;;;;5006384;28;20084;-39
2021/09/27 01:03:41;;;;;;;8.60;6.57;;;19.00;75.90;;;;;;5005661;28;20050;-39
2021/09/27 01:06:46;;;;;;;9.25;6.43;;;19.00;75.80;;;;;;5007135;28;20365;-39
2021/09/27 01:09:55;;;;;;;9.88;6.18;;;19.00;76.00;;;;;;5007323;28;20066;-39
2021/09/27 01:13:17;;;;;;;9.95;6.38;;;19.00;76.10;;;;;;5005850;28;20271;-39
2021/09/27 01:16:28;;;;;;;13.10;6.43;;;19.00;75.90;;;;;;5006079;28;20291;-39
2021/09/27 01:19:24;;;;;;;9.35;6.43;;;18.90;76.10;;;;;;5006164;28;20080;-39
2021/09/27 01:22:31;;;;;;;12.30;6.63;;;18.90;75.80;;;;;;5005572;28;20037;-39
2021/09/27 01:25:34;;;;;;;9.32;6.45;;;18.90;75.80;;;;;;5005745;28;20037;-39
2021/09/27 01:28:41;;;;;;;13.43;6.40;;;18.80;75.90;;;;;;5006490;28;20037;-39
2021/09/27 01:31:33;;;;;;;10.35;5.95;;;18.80;76.00;;;;;;4991823;28;20430;-39
2021/09/27 01:34:18;;;;;;;9.25;6.22;;;18.90;75.90;;;;;;4991996;28;20038;-39
2021/09/27 01:37:24;;;;;;;9.57;6.65;;;18.90;75.90;;;;;;5005357;28;20034;-39
2021/09/27 01:40:25;;;;;;;9.60;6.30;;;18.90;75.90;;;;;;5006134;28;20064;-39
2021/09/27 01:43:24;;;;;;;10.03;6.23;;;18.90;76.20;;;;;;5006778;28;20037;-38
2021/09/27 01:46:35;;;;;;;12.48;7.40;;;18.80;76.10;;;;;;5005982;28;20324;-39
2021/09/27 01:49:37;;;;;;;9.70;6.53;;;18.80;76.20;;;;;;5005096;28;20037;-39
2021/09/27 01:52:51;;;;;;;9.18;6.47;;;18.80;76.50;;;;;;5005222;28;20300;-39
2021/09/27 01:55:45;;;;;;;10.25;7.20;;;18.70;76.40;;;;;;5005296;28;20258;-39
2021/09/27 01:58:55;;;;;;;10.23;6.60;;;18.80;76.30;;;;;;5006175;28;20060;-39
2021/09/27 02:02:05;;;;;;;10.07;7.35;;;18.80;76.50;;;;;;5006120;28;20048;-39
2021/09/27 02:04:59;;;;;;;10.00;6.70;;;18.80;76.30;;;;;;5005758;28;20064;-39
2021/09/27 02:08:02;;;;;;;10.65;6.82;;;18.80;76.20;;;;;;4992556;28;20087;-39
2021/09/27 02:10:50;;;;;;;11.20;6.60;;;18.80;76.30;;;;;;5004986;28;20041;-39
2021/09/27 02:13:47;;;;;;;9.60;6.75;;;18.80;76.20;;;;;;5005400;28;20060;-39
2021/09/27 02:16:40;;;;;;;10.35;6.35;;;18.80;76.10;;;;;;5004834;28;20089;-39
2021/09/27 02:19:46;;;;;;;9.27;6.70;;;18.80;76.20;;;;;;5005630;28;20113;-39
2021/09/27 02:23:07;;;;;;;7.97;6.22;;;18.80;76.30;;;;;;5005697;28;20238;-39
2021/09/27 02:25:51;;;;;;;11.30;6.82;;;18.80;76.30;;;;;;5004578;28;20118;-39
2021/09/27 02:28:36;;;;;;;10.48;6.68;;;18.80;76.10;;;;;;5005886;28;20267;-40
2021/09/27 02:31:50;;;;;;;9.85;6.57;;;18.80;76.10;;;;;;5004621;28;20072;-40
2021/09/27 02:34:43;;;;;;;9.05;6.72;;;18.80;76.20;;;;;;5005297;28;20356;-39
2021/09/27 02:37:38;;;;;;;11.10;7.28;;;18.80;76.00;;;;;;5005449;28;20076;-39
2021/09/27 02:40:36;;;;;;;10.88;6.90;;;18.80;76.00;;;;;;5004470;28;20037;-39
2021/09/27 02:43:20;;;;;;;9.35;6.30;;;18.80;75.80;;;;;;5004418;28;20044;-38
2021/09/27 02:46:04;;;;;;;11.07;6.85;;;18.80;75.50;;;;;;5005126;28;20049;-39
2021/09/27 02:48:57;;;;;;;9.23;6.00;;;18.80;75.60;;;;;;5004900;28;20064;-39
2021/09/27 02:51:44;;;;;;;8.82;6.32;;;18.80;75.50;;;;;;5005442;28;20037;-38
2021/09/27 02:54:33;;;;;;;10.77;6.80;;;18.80;75.50;;;;;;5005323;28;20349;-39
2021/09/27 02:57:22;;;;;;;11.05;6.57;;;18.80;75.30;;;;;;5005033;28;20089;-39
2021/09/27 03:00:13;;;;;;;9.63;6.40;;;18.80;75.20;;;;;;5004211;28;20049;-39
2021/09/27 03:03:23;;;;;;;9.88;6.60;;;18.80;75.10;;;;;;5004120;28;20034;-39
2021/09/27 03:06:25;;;;;;;10.35;6.22;;;18.80;75.10;;;;;;5004187;28;20110;-39
2021/09/27 03:09:21;;;;;;;9.30;6.15;;;18.80;75.10;;;;;;5004360;28;20097;-39
2021/09/27 03:12:14;;;;;;;8.73;6.72;;;18.80;75.40;;;;;;5003990;28;20053;-39
2021/09/27 03:15:17;;;;;;;10.27;6.65;;;18.80;75.20;;;;;;5004908;28;20255;-39
2021/09/27 03:18:14;;;;;;;9.98;5.78;;;18.80;75.20;;;;;;5004969;28;20037;-39
2021/09/27 03:21:20;;;;;;;11.73;6.38;;;18.80;75.00;;;;;;5004956;28;20029;-39
2021/09/27 03:24:18;;;;;;;8.25;5.88;;;18.80;75.60;;;;;;4989858;28;20102;-39
2021/09/27 03:27:22;;;;;;;10.10;6.38;;;18.80;74.80;;;;;;5004102;28;20037;-39
2021/09/27 03:30:21;;;;;;;8.52;6.35;;;18.80;74.50;;;;;;5004449;28;20042;-39
2021/09/27 03:33:20;;;;;;;9.95;6.22;;;18.80;74.30;;;;;;5003502;28;20074;-40
2021/09/27 03:36:08;;;;;;;9.63;6.03;;;18.80;74.30;;;;;;5003558;28;20053;-39
2021/09/27 03:39:02;;;;;;;8.60;6.07;;;18.80;74.00;;;;;;5003747;28;20365;-39
2021/09/27 03:41:51;;;;;;;9.55;5.97;;;18.80;74.00;;;;;;5004350;28;20223;-39
2021/09/27 03:44:44;;;;;;;9.95;6.43;;;18.70;73.70;;;;;;5003284;28;20362;-39
2021/09/27 03:47:39;;;;;;;8.90;6.07;;;18.70;73.80;;;;;;5003740;28;20227;-39
2021/09/27 03:50:55;;;;;;;9.88;5.80;;;18.70;73.60;;;;;;5003254;28;20037;-39
2021/09/27 03:54:14;;;;;;;8.90;6.00;;;18.70;73.50;;;;;;5004188;28;20430;-40
2021/09/27 03:57:06;;;;;;;10.50;6.32;;;18.70;73.40;;;;;;5003931;28;20046;-39
2021/09/27 04:00:07;;;;;;;7.70;5.60;;;18.60;72.90;;;;;;5003436;28;20054;-39
2021/09/27 04:03:30;;;;;;;7.80;5.73;;;18.60;73.20;;;;;;5003378;28;20037;-39
2021/09/27 04:06:33;;;;;;;9.05;5.93;;;18.60;73.30;;;;;;5003182;28;20053;-39
2021/09/27 04:09:38;;;;;;;7.32;5.32;;;18.50;73.60;;;;;;5004127;28;20057;-39
2021/09/27 04:12:32;;;;;;;10.40;5.88;;;18.60;73.10;;;;;;5004404;28;20045;-39
2021/09/27 04:15:50;;;;;;;8.68;5.43;;;18.50;73.10;;;;;;5003257;28;20250;-39
2021/09/27 04:18:57;;;;;;;9.10;5.55;;;18.50;73.50;;;;;;5003126;28;20045;-39
2021/09/27 04:22:08;;;;;;;8.05;5.63;;;18.50;73.50;;;;;;5003558;28;20057;-39
2021/09/27 04:25:11;;;;;;;9.70;5.60;;;18.50;73.70;;;;;;5003497;28;20049;-39
2021/09/27 04:28:18;;;;;;;10.13;5.80;;;18.50;73.30;;;;;;5003267;28;20042;-39
2021/09/27 04:31:05;;;;;;;10.55;6.05;;;18.40;73.00;;;;;;5003350;28;20360;-39
2021/09/27 04:34:20;;;;;;;7.35;5.18;;;18.40;72.80;;;;;;5004282;28;20069;-39
2021/09/27 04:37:04;;;;;;;8.50;5.68;;;18.40;73.50;;;;;;5004407;28;20206;-39
2021/09/27 04:39:49;;;;;;;9.18;6.65;;;18.40;72.90;;;;;;5006217;28;20037;-39
2021/09/27 04:43:13;;;;;;;8.40;5.95;;;18.30;72.80;;;;;;5006046;28;20065;-39
2021/09/27 04:46:33;;;;;;;7.93;6.20;;;18.30;73.70;;;;;;4984467;28;20081;-39
2021/09/27 04:49:52;;;;;;;7.90;5.57;;;18.30;74.20;;;;;;5007216;28;20060;-39
2021/09/27 04:52:55;;;;;;;10.73;6.22;;;18.30;73.40;;;;;;4982218;28;20041;-39
2021/09/27 04:55:58;;;;;;;9.02;6.07;;;18.30;73.60;;;;;;5006207;28;20037;-40
2021/09/27 04:58:47;;;;;;;11.82;7.13;;;18.30;73.80;;;;;;5007022;28;20041;-40
2021/09/27 05:01:55;;;;;;;10.75;6.88;;;18.30;74.10;;;;;;5006237;28;20110;-39
2021/09/27 05:04:49;;;;;;;9.98;6.70;;;18.30;75.30;;;;;;5006135;28;20049;-39
2021/09/27 05:07:47;;;;;;;9.00;6.43;;;18.30;73.70;;;;;;5005931;28;20177;-40
2021/09/27 05:11:08;;;;;;;9.73;6.60;;;18.20;73.70;;;;;;5006126;28;20092;-40
2021/09/27 05:13:57;;;;;;;8.65;5.95;;;18.10;73.90;;;;;;5006457;28;20288;-39
2021/09/27 05:16:48;;;;;;;9.20;6.57;;;18.00;73.10;;;;;;5006283;28;20057;-39
2021/09/27 05:19:38;;;;;;;11.13;6.55;;;18.00;72.90;;;;;;5006301;28;20088;-39
2021/09/27 05:22:30;;;;;;;9.57;6.70;;;18.00;72.90;;;;;;5005808;28;20146;-39
2021/09/27 05:25:44;;;;;;;8.18;5.97;;;17.90;72.80;;;;;;5006321;28;20045;-39
2021/09/27 05:28:34;;;;;;;10.93;6.40;;;17.90;73.40;;;;;;4992727;28;20115;-39
2021/09/27 05:31:18;;;;;;;10.60;6.60;;;17.90;72.80;;;;;;5005523;28;20037;-39
2021/09/27 05:34:08;;;;;;;12.50;6.63;;;17.80;72.90;;;;;;5006336;28;20118;-40
2021/09/27 05:37:11;;;;;;;13.82;6.50;;;17.80;73.20;;;;;;5006851;28;20037;-39
2021/09/27 05:40:17;;;;;;;9.57;6.85;;;17.80;73.80;;;;;;5006226;28;20116;-40
2021/09/27 05:44:02;;;;;;;11.68;7.35;;;17.80;74.00;;;;;;5005177;28;20077;-39
2021/09/27 05:47:07;;;;;;;10.50;6.60;;;17.80;74.50;;;;;;4934001;28;20045;-39
2021/09/27 05:49:55;;;;;;;12.75;6.82;;;17.70;74.20;;;;;;5005496;28;20030;-40
2021/09/27 05:52:53;;;;;;;12.18;6.30;;;17.70;73.80;;;;;;5006478;28;20029;-39
2021/09/27 05:55:47;;;;;;;11.25;6.55;;;17.70;73.80;;;;;;5005879;28;20077;-39
2021/09/27 05:58:38;;;;;;;10.80;6.45;;;17.70;73.80;;;;;;5004561;28;20058;-39
2021/09/27 06:01:30;;;;;;;10.43;6.13;;;17.70;73.90;;;;;;5005576;28;20045;-39
2021/09/27 06:04:22;;;;;;;10.23;5.75;;;17.70;74.00;;;;;;5005840;28;20036;-39
2021/09/27 06:07:29;;;;;;;15.57;7.35;;;17.70;74.10;;;;;;5005365;28;20057;-40
2021/09/27 06:10:32;;;;;;;10.27;6.55;;;17.70;74.50;;;;;;5004613;28;20040;-40
2021/09/27 06:13:30;;;;;;;9.73;6.40;;;17.70;74.70;;;;;;5006069;28;20040;-40
2021/09/27 06:16:44;;;;;;;11.25;6.07;;;17.80;74.70;;;;;;5005590;28;20045;-40
2021/09/27 06:19:45;;;;;;;9.45;6.50;;;17.80;75.00;;;;;;5004219;28;20362;-39
2021/09/27 06:22:37;;;;;;;10.60;6.37;;;17.90;75.00;;;;;;5005250;28;20353;-39
2021/09/27 06:25:50;;;;;;;9.50;6.43;;;18.00;75.30;;;;;;5004674;28;20081;-40
2021/09/27 06:28:39;;;;;;;8.25;5.63;;;18.20;75.60;;;;;;5004288;28;20093;-40
2021/09/27 06:31:32;;;;;;;9.70;5.95;;;18.30;75.00;;;;;;5003799;28;20041;-40
2021/09/27 06:34:23;;;;;;;9.73;5.55;;;18.50;75.00;;;;;;5004105;28;20096;-39
2021/09/27 06:37:07;;;;;;;7.82;5.53;;;18.60;75.10;;;;;;5004448;28;20381;-39
2021/09/27 06:39:51;;;;;;;9.38;5.75;;;18.60;75.00;;;;;;5003956;28;20033;-40
2021/09/27 06:42:35;;;;;;;9.20;5.32;;;18.70;74.90;;;;;;5004107;28;20045;-39
2021/09/27 06:45:20;;;;;;;7.15;5.05;;;18.80;74.60;;;;;;5005124;28;20270;-39
2021/09/27 06:48:04;;;;;;;6.93;5.25;;;18.90;74.50;;;;;;5005091;28;20090;-39
2021/09/27 06:50:48;;;;;;;10.82;5.57;;;19.10;74.10;;;;;;5005107;28;20208;-39
2021/09/27 06:53:32;;;;;;;8.65;4.65;;;19.30;73.10;;;;;;5005074;28;20149;-39
2021/09/27 06:56:17;;;;;;;7.25;4.70;;;19.50;73.10;;;;;;5003780;28;20346;-39
2021/09/27 06:59:01;;;;;;;6.45;4.88;;;19.90;72.50;;;;;;5004735;28;20110;-39
2021/09/27 07:01:45;;;;;;;10.80;5.13;;;20.30;71.30;;;;;;5005006;28;20227;-40
2021/09/27 07:04:30;;;;;;;7.88;5.03;;;20.70;71.10;;;;;;5004612;28;20036;-40
2021/09/27 07:07:15;;;;;;;7.47;5.03;;;20.90;70.40;;;;;;5004416;28;20040;-39
2021/09/27 07:09:59;;;;;;;11.07;5.20;;;21.10;69.80;;;;;;5004004;28;20030;-39
2021/09/27 07:12:43;;;;;;;6.78;4.60;;;21.20;69.70;;;;;;5004180;28;20393;-40
2021/09/27 07:15:27;;;;;;;8.35;4.65;;;21.20;69.20;;;;;;5004839;28;20091;-40
2021/09/27 07:18:11;;;;;;;6.38;4.80;;;21.10;69.90;;;;;;5004724;28;20219;-39
2021/09/27 07:20:58;;;;;;;8.88;4.95;;;21.20;69.80;;;;;;5004673;28;20077;-39
2021/09/27 07:23:42;;;;;;;8.48;4.75;;;21.30;70.10;;;;;;5004523;28;20381;-39
2021/09/27 07:26:27;;;;;;;6.60;4.85;;;21.20;70.40;;;;;;5004781;28;20036;-39
2021/09/27 07:29:11;;;;;;;9.40;4.70;;;21.10;70.40;;;;;;5003421;28;20086;-40
2021/09/27 07:31:55;;;;;;;9.27;5.20;;;21.00;70.10;;;;;;5004056;28;20049;-39
2021/09/27 07:34:40;;;;;;;8.02;5.22;;;20.90;70.90;;;;;;5004657;28;20074;-39
2021/09/27 07:37:24;;;;;;;8.32;4.95;;;20.80;71.60;;;;;;5004418;28;20122;-39
2021/09/27 07:40:11;;;;;;;10.32;5.13;;;20.80;71.80;;;;;;5004382;28;20230;-40
2021/09/27 07:42:55;;;;;;;6.93;4.53;;;20.80;71.90;;;;;;5004620;28;20037;-39
2021/09/27 07:45:39;;;;;;;8.32;4.97;;;21.00;71.20;;;;;;5003192;28;20077;-39
2021/09/27 07:48:23;;;;;;;6.88;4.88;;;21.20;70.90;;;;;;5004602;28;20068;-40
2021/09/27 07:51:08;;;;;;;6.53;4.50;;;21.30;71.00;;;;;;5004429;28;20101;-39
2021/09/27 07:53:52;;;;;;;7.22;4.72;;;21.50;70.60;;;;;;5004531;28;20029;-40
2021/09/27 07:56:36;;;;;;;10.90;4.65;;;21.70;70.40;;;;;;5003961;28;20073;-40
2021/09/27 07:59:21;;;;;;;6.13;3.80;;;21.90;70.00;;;;;;5003748;28;20030;-39
2021/09/27 08:02:05;;;;;;;9.60;4.18;;;22.30;68.70;;;;;;5002949;28;20037;-39
2021/09/27 08:04:49;;;;;;;5.22;4.10;;;23.00;65.20;;;;;;5005460;28;20126;-40
2021/09/27 08:07:33;;;;;;;5.60;3.60;;;23.60;64.10;;;;;;5003964;28;20049;-40
2021/09/27 08:10:18;;;;;;;6.35;4.68;;;24.10;63.70;;;;;;5003844;28;20226;-40
2021/09/27 08:13:02;;;;;;;6.95;4.05;;;24.60;62.20;;;;;;5005903;28;20057;-40
2021/09/27 08:15:48;;;;;;;5.20;3.88;;;25.00;59.50;;;;;;5007559;28;20069;-40
2021/09/27 08:18:33;;;;;;;7.10;4.38;;;25.30;59.50;;;;;;5007765;28;20041;-40
2021/09/27 08:21:18;;;;;;;6.82;4.15;;;25.50;59.70;;;;;;5008048;28;20053;-40
2021/09/27 08:24:03;;;;;;;4.95;3.95;;;25.60;57.20;;;;;;5006803;28;20057;-40
2021/09/27 08:26:47;;;;;;;9.60;4.28;;;25.50;57.80;;;;;;5008339;28;20292;-40
2021/09/27 08:29:31;;;;;;;6.20;4.22;;;25.30;58.40;;;;;;5007196;28;20041;-39
2021/09/27 08:32:16;;;;;;;6.18;4.75;;;25.00;59.40;;;;;;5007513;28;20049;-40
2021/09/27 08:35:00;;;;;;;6.93;4.50;;;24.70;58.30;;;;;;5007388;28;20254;-41
2021/09/27 08:37:44;;;;;;;9.35;5.07;;;24.30;60.10;;;;;;5007829;28;20022;-41
2021/09/27 08:40:55;;;;;;;7.10;5.18;;;24.00;61.10;;;;;;5007433;28;20102;-40
2021/09/27 08:43:42;;;;;;;8.13;5.18;;;23.80;62.00;;;;;;5007211;28;20077;-40
2021/09/27 08:46:35;;;;;;;9.93;5.30;;;23.50;62.10;;;;;;5005409;28;20081;-40
2021/09/27 08:49:40;;;;;;;7.70;5.13;;;23.40;62.70;;;;;;5007265;28;20089;-40
2021/09/27 08:52:26;;;;;;;7.70;5.13;;;23.30;62.80;;;;;;5006375;28;20098;-40
2021/09/27 08:55:12;;;;;;;8.35;5.43;;;23.30;63.40;;;;;;5006653;28;20101;-40
2021/09/27 08:58:20;;;;;;;10.93;5.38;;;23.30;63.50;;;;;;5006571;28;20155;-40
2021/09/27 09:01:11;;;;;;;8.40;5.40;;;23.20;64.40;;;;;;5005940;28;20049;-40
2021/09/27 09:04:16;;;;;;;9.15;5.40;;;23.20;64.40;;;;;;5005664;28;20385;-40
2021/09/27 09:07:03;;;;;;;6.75;4.90;;;23.30;64.60;;;;;;5005788;28;20068;-40
2021/09/27 09:09:49;;;;;;;6.03;4.97;;;23.20;63.90;;;;;;5006443;28;20068;-41
2021/09/27 09:12:47;;;;;;;7.60;5.30;;;23.30;64.60;;;;;;5005904;28;20088;-40
2021/09/27 09:15:32;;;;;;;7.80;5.13;;;23.50;66.70;;;;;;5005411;28;20130;-42
2021/09/27 09:18:21;;;;;;;8.75;5.72;;;23.50;64.70;;;;;;5005427;28;20114;-41
2021/09/27 09:21:12;;;;;;;7.13;5.43;;;23.60;64.30;;;;;;5007111;28;20042;-40
2021/09/27 09:23:58;;;;;;;;;;;23.70;64.30;;;;;;5005481;28;20088;-41
2021/09/27 09:26:48;;;;;;;10.73;5.80;;;23.50;65.20;;;;;;5006731;28;19953;-41
2021/09/27 09:29:33;;;;;;;7.88;6.10;;;23.50;64.40;;;;;;5006662;28;20106;-40
2021/09/27 09:32:28;;;;;;;6.85;4.97;;;23.50;64.50;;;;;;5006620;28;20211;-41
2021/09/27 09:35:26;;;;;;;7.55;5.35;;;23.70;62.50;;;;;;5005246;28;20097;-40
2021/09/27 09:38:11;;;;;;;6.75;5.43;;;23.70;62.40;;;;;;5006666;28;20053;-40
2021/09/27 09:40:56;;;;;;;6.53;5.68;;;23.80;63.70;;;;;;5006388;28;20090;-41
2021/09/27 09:43:43;;;;;;;7.32;5.60;;;23.80;61.70;;;;;;5006626;28;20027;-42
2021/09/27 09:46:31;;;;;;;6.93;5.45;;;23.80;60.20;;;;;;5006055;28;20042;-40
2021/09/27 09:49:15;;;;;;;7.28;5.55;;;23.90;61.70;;;;;;5006003;28;20357;-40
2021/09/27 09:52:02;;;;;;;6.57;5.25;;;23.90;60.70;;;;;;5007008;28;20029;-40
2021/09/27 09:54:49;;;;;;;7.95;5.57;;;24.10;61.60;;;;;;5006432;28;20069;-41
2021/09/27 09:57:36;;;;;;;5.78;4.90;;;24.20;61.30;;;;;;5006183;28;20029;-40
2021/09/27 10:00:42;;;;;;;8.25;5.18;;;24.20;59.40;;;;;;5005244;28;20065;-40
2021/09/27 10:03:35;;;;;;;7.72;5.28;;;24.30;60.00;;;;;;5005273;28;20037;-40
2021/09/27 10:06:25;;;;;;;7.65;5.45;;;24.50;61.50;;;;;;5004916;28;20073;-41
2021/09/27 10:09:28;;;;;;;7.72;5.60;;;24.70;58.90;;;;;;5004858;28;20053;-40
2021/09/27 10:12:14;;;;;;;8.48;5.97;;;24.80;62.00;;;;;;5004410;28;20049;-40
2021/09/27 10:14:58;;;;;;;5.60;4.93;;;24.80;60.20;;;;;;5005737;28;20061;-40
2021/09/27 10:17:42;;;;;;;7.13;5.50;;;25.00;59.50;;;;;;5005309;28;20088;-39
2021/09/27 10:20:32;;;;;;;6.65;4.60;;;25.10;58.60;;;;;;5005158;28;20033;-40
2021/09/27 10:23:17;;;;;;;7.03;5.45;;;25.10;57.60;;;;;;5004372;28;20033;-40
2021/09/27 10:26:33;;;;;;;5.75;4.78;;;25.20;58.90;;;;;;5004322;28;20080;-40
2021/09/27 10:29:24;;;;;;;5.80;4.13;;;25.30;58.50;;;;;;5005128;28;20065;-40
2021/09/27 10:32:31;;;;;;;7.03;4.38;;;25.40;55.40;;;;;;5005287;28;20028;-40
2021/09/27 10:35:40;;;;;;;6.43;4.95;;;25.50;55.80;;;;;;5004247;28;20034;-41
2021/09/27 10:38:45;;;;;;;5.93;4.78;;;25.70;56.90;;;;;;5004525;28;20038;-41
2021/09/27 10:41:42;;;;;;;6.53;4.60;;;25.80;55.60;;;;;;5005647;28;20207;-41
2021/09/27 10:44:42;;;;;;;6.55;4.80;;;25.90;56.40;;;;;;5003895;28;20046;-40
2021/09/27 10:47:31;;;;;;;5.70;4.70;;;26.10;57.50;;;;;;5004004;28;20045;-41
2021/09/27 10:50:20;;;;;;;5.78;4.55;;;26.00;55.70;;;;;;5003711;28;20030;-41
2021/09/27 10:53:43;;;;;;;7.05;4.45;;;26.10;55.30;;;;;;5003939;28;20033;-41
2021/09/27 10:56:38;;;;;;;6.78;4.82;;;26.10;54.80;;;;;;5004552;28;20118;-41
2021/09/27 10:59:31;;;;;;;6.63;4.65;;;26.20;54.90;;;;;;5003655;28;20041;-40
2021/09/27 11:02:21;;;;;;;7.25;4.70;;;26.30;55.50;;;;;;5003719;28;20230;-40
2021/09/27 11:05:29;;;;;;;7.07;4.70;;;26.40;52.40;;;;;;5004929;28;20118;-40
2021/09/27 11:08:14;;;;;;;4.57;4.07;;;26.70;55.10;;;;;;5004340;28;20026;-40
2021/09/27 11:10:59;;;;;;;6.07;4.50;;;26.80;52.80;;;;;;4989842;28;20021;-41
2021/09/27 11:13:43;;;;;;;4.60;3.97;;;26.80;51.60;;;;;;5003812;28;20065;-40
2021/09/27 11:16:27;;;;;;;6.88;4.50;;;27.00;52.00;;;;;;5004159;28;20041;-40
2021/09/27 11:19:30;;;;;;;8.75;4.60;;;26.90;50.90;;;;;;5004715;28;20040;-40
2021/09/27 11:22:14;;;;;;;9.38;4.80;;;27.00;50.30;;;;;;5005089;28;20073;-43
2021/09/27 11:25:28;;;;;;;6.97;4.55;;;27.10;51.90;;;;;;5004321;28;20103;-41
2021/09/27 11:28:27;;;;;;;7.65;4.80;;;27.20;49.50;;;;;;5004590;28;20037;-40
2021/09/27 11:31:27;;;;;;;6.60;4.57;;;27.30;49.80;;;;;;5004676;28;20382;-41
2021/09/27 11:34:31;;;;;;;6.57;4.85;;;27.30;51.80;;;;;;5005007;28;20033;-41
2021/09/27 11:37:32;;;;;;;5.47;4.25;;;27.40;51.10;;;;;;5003116;28;20062;-40
2021/09/27 11:40:16;;;;;;;5.25;4.50;;;27.50;47.90;;;;;;4989873;28;20122;-40
2021/09/27 11:43:35;;;;;;;6.55;4.55;;;27.40;47.50;;;;;;5004686;28;20053;-40
2021/09/27 11:46:24;;;;;;;7.22;4.47;;;27.50;48.00;;;;;;4979184;28;20263;-42
2021/09/27 11:52:13;;;;;;;7.10;4.65;;;27.70;46.90;;;;;;5008537;28;20037;-40
2021/09/27 11:55:11;;;;;;;5.70;4.75;;;27.70;49.50;;;;;;5008832;28;20041;-40
2021/09/27 11:58:40;;;;;;;6.30;4.28;;;27.80;50.60;;;;;;5008726;28;20033;-40
2021/09/27 12:01:47;;;;;;;5.18;4.28;;;27.80;48.40;;;;;;4983129;28;20114;-40
2021/09/27 12:05:05;;;;;;;5.65;4.43;;;27.80;48.90;;;;;;5008070;28;20041;-40
2021/09/27 12:07:52;;;;;;;6.35;4.82;;;27.70;48.60;;;;;;5008570;28;20049;-41
2021/09/27 12:10:42;;;;;;;7.95;5.20;;;27.60;48.90;;;;;;5008117;28;20267;-41
2021/09/27 12:13:28;;;;;;;;;;;27.60;47.90;;;;;;5009354;28;20080;-41
2021/09/27 12:16:33;;;;;;;7.18;5.20;;;27.40;48.00;;;;;;5008636;28;19944;-41
2021/09/27 12:19:22;;;;;;;6.40;5.20;;;27.30;49.30;;;;;;5005048;28;20088;-42
2021/09/27 12:22:18;;;;;;;7.43;5.60;;;27.20;47.80;;;;;;5008296;28;20037;-42
2021/09/27 12:25:06;;;;;;;6.20;5.00;;;27.00;48.80;;;;;;5007090;28;20060;-42
2021/09/27 12:28:13;;;;;;;6.68;5.22;;;26.90;49.60;;;;;;5008009;28;20037;-41
2021/09/27 12:30:59;;;;;;;5.80;4.68;;;26.80;48.60;;;;;;5006421;28;20263;-41
2021/09/27 12:33:44;;;;;;;5.60;4.65;;;26.70;50.10;;;;;;5006219;28;20049;-40
2021/09/27 12:36:28;;;;;;;7.45;5.18;;;26.60;49.40;;;;;;5007248;28;20365;-40
2021/09/27 12:39:12;;;;;;;6.93;5.13;;;26.50;50.00;;;;;;5007172;28;20033;-40
2021/09/27 12:41:58;;;;;;;5.30;4.40;;;26.40;49.90;;;;;;5007092;28;20033;-41
2021/09/27 12:44:51;;;;;;;5.88;5.28;;;26.30;50.50;;;;;;5006224;28;20037;-40
2021/09/27 12:47:35;;;;;;;8.07;4.85;;;26.30;51.20;;;;;;5006939;28;20377;-40
2021/09/27 12:50:22;;;;;;;7.15;5.30;;;26.40;51.20;;;;;;5005903;28;20034;-43
2021/09/27 12:53:08;;;;;;;6.47;4.50;;;26.50;51.10;;;;;;5006051;28;20086;-42
2021/09/27 12:55:53;;;;;;;6.20;5.05;;;26.50;49.80;;;;;;5005993;28;20389;-42
2021/09/27 12:58:42;;;;;;;5.97;4.78;;;26.60;50.10;;;;;;5005540;28;20037;-42
2021/09/27 13:01:27;;;;;;;7.88;5.40;;;26.60;49.60;;;;;;5005755;28;20080;-42
2021/09/27 13:04:13;;;;;;;6.70;4.63;;;26.60;49.30;;;;;;5006257;28;20042;-45
2021/09/27 13:07:08;;;;;;;5.78;4.80;;;26.60;49.70;;;;;;5006133;28;20041;-41
2021/09/27 13:10:06;;;;;;;5.43;4.70;;;26.70;50.30;;;;;;5006892;28;20037;-42
2021/09/27 13:13:15;;;;;;;9.00;4.60;;;26.60;52.00;;;;;;5006503;28;20041;-43
2021/09/27 13:16:02;;;;;;;6.82;5.03;;;26.60;51.60;;;;;;5006214;28;20084;-44
2021/09/27 13:18:47;;;;;;;7.18;4.47;;;26.50;51.80;;;;;;5006711;28;20076;-41
2021/09/27 13:21:45;;;;;;;7.70;5.10;;;26.40;51.70;;;;;;5006422;28;20358;-42
2021/09/27 13:24:30;;;;;;;6.07;4.60;;;26.30;50.40;;;;;;5006383;28;20073;-41
2021/09/27 13:27:45;;;;;;;6.65;4.90;;;26.20;50.80;;;;;;5005355;28;20080;-43
2021/09/27 13:30:34;;;;;;;7.57;5.20;;;26.20;51.50;;;;;;5006467;28;20037;-39
2021/09/27 13:33:54;;;;;;;6.43;4.80;;;26.10;52.00;;;;;;5006511;28;20061;-40
2021/09/27 13:36:45;;;;;;;6.35;4.88;;;26.20;52.10;;;;;;4946647;29;20103;-40
2021/09/27 13:39:38;;;;;;;6.80;4.72;;;26.20;52.20;;;;;;5006477;28;20361;-40
2021/09/27 13:42:42;;;;;;;7.57;5.15;;;26.20;52.00;;;;;;5005439;28;20258;-40
2021/09/27 13:45:32;;;;;;;6.93;5.10;;;26.20;51.20;;;;;;5006465;28;20077;-40
2021/09/27 13:48:16;;;;;;;6.07;5.20;;;26.30;51.70;;;;;;5005176;28;20065;-40
2021/09/27 13:51:00;;;;;;;7.20;5.28;;;26.20;51.10;;;;;;5005931;28;20033;-40
2021/09/27 13:53:47;;;;;;;6.95;5.32;;;26.10;52.20;;;;;;5004731;28;20053;-40
2021/09/27 13:56:34;;;;;;;7.93;5.15;;;26.00;51.30;;;;;;5004916;28;20064;-40
2021/09/27 13:59:19;;;;;;;7.40;5.20;;;26.00;50.00;;;;;;5006080;28;20056;-39
2021/09/27 14:02:04;;;;;;;6.55;5.43;;;25.90;50.90;;;;;;5005367;28;20036;-40
2021/09/27 14:04:48;;;;;;;7.03;4.50;;;25.80;51.90;;;;;;5005937;28;20025;-40
2021/09/27 14:07:32;;;;;;;10.70;5.60;;;25.80;52.30;;;;;;5004556;28;20077;-40
2021/09/27 14:10:16;;;;;;;8.00;5.35;;;25.80;52.50;;;;;;5004087;28;20037;-40
2021/09/27 14:13:00;;;;;;;6.35;4.53;;;25.80;50.80;;;;;;5005863;28;20109;-41
2021/09/27 14:15:45;;;;;;;6.85;5.25;;;25.80;50.60;;;;;;5005853;28;20038;-42
2021/09/27 14:18:30;;;;;;;5.20;4.40;;;25.70;51.80;;;;;;5005642;28;20110;-42
2021/09/27 14:21:16;;;;;;;5.97;4.85;;;25.70;51.00;;;;;;5005358;28;20334;-43
2021/09/27 14:24:00;;;;;;;7.05;4.85;;;25.50;50.80;;;;;;5005342;28;20053;-41
2021/09/27 14:26:44;;;;;;;7.38;5.50;;;25.50;49.50;;;;;;5005377;28;20065;-41
2021/09/27 14:29:29;;;;;;;6.82;5.00;;;25.50;49.90;;;;;;5005128;28;20081;-41
2021/09/27 14:32:13;;;;;;;7.20;4.93;;;25.40;51.60;;;;;;5005036;28;20048;-41
2021/09/27 14:34:57;;;;;;;7.32;5.03;;;25.40;51.60;;;;;;5005306;28;20030;-41
2021/09/27 14:37:42;;;;;;;8.25;5.68;;;25.40;51.60;;;;;;5005449;28;20079;-44
2021/09/27 14:40:26;;;;;;;6.70;4.93;;;25.30;52.30;;;;;;5004680;28;20042;-42
2021/09/27 14:43:11;;;;;;;7.50;4.97;;;25.30;51.30;;;;;;5005363;28;20053;-43
2021/09/27 14:45:56;;;;;;;7.97;5.18;;;25.20;52.00;;;;;;5004720;28;20255;-44
2021/09/27 14:48:40;;;;;;;7.47;5.07;;;25.30;52.60;;;;;;5004945;28;20032;-42
2021/09/27 14:51:24;;;;;;;6.85;5.15;;;25.10;52.10;;;;;;5004696;28;20029;-43
2021/09/27 14:54:09;;;;;;;8.18;5.40;;;25.10;52.40;;;;;;5004796;28;20226;-42
2021/09/27 14:56:53;;;;;;;7.47;5.00;;;25.00;51.80;;;;;;5004753;28;20207;-41
2021/09/27 14:59:37;;;;;;;9.75;5.88;;;24.80;52.30;;;;;;5004498;28;20045;-41
2021/09/27 15:02:21;;;;;;;7.95;5.15;;;24.80;54.20;;;;;;4998211;28;20138;-41